Time;durP1;ratioP1;P1;durP2;ratioP2;P2;SDS_P1;SDS_P2;PMS_P1;PMS_P2;Temp;Humidity;BMP_temperature;BMP_pressure;BME280_temperature;BME280_humidity;BME280_pressure;Samples;Min_cycle;Max_cycle;Signal;HPM_P1;HPM_P2
2021/08/27 00:00:44;;;;;;;20.40;7.85;;;16.10;86.10;;;;;;5029773;28;20447;-72
2021/08/27 00:03:09;;;;;;;17.83;7.78;;;16.10;86.10;;;;;;5031204;28;20040;-72
2021/08/27 00:05:35;;;;;;;22.92;8.60;;;16.10;86.20;;;;;;5021630;28;20478;-73
2021/08/27 00:08:01;;;;;;;22.00;8.35;;;16.00;85.90;;;;;;5028132;28;20648;-76
2021/08/27 00:10:26;;;;;;;24.45;8.27;;;15.90;85.90;;;;;;5022936;28;20397;-73
2021/08/27 00:12:52;;;;;;;20.73;7.20;;;15.90;85.90;;;;;;5014423;28;20393;-72
2021/08/27 00:15:18;;;;;;;22.67;7.85;;;15.90;85.80;;;;;;5032032;28;20029;-72
2021/08/27 00:17:44;;;;;;;21.88;7.70;;;15.80;85.70;;;;;;5021752;28;20041;-73
2021/08/27 00:20:10;;;;;;;16.90;6.65;;;15.80;85.60;;;;;;5027098;28;20034;-76
2021/08/27 00:22:37;;;;;;;19.13;6.93;;;15.70;85.60;;;;;;5014949;28;20374;-72
2021/08/27 00:25:04;;;;;;;16.73;6.50;;;15.70;85.50;;;;;;5028767;28;20045;-72
2021/08/27 00:27:30;;;;;;;15.68;6.45;;;15.70;85.50;;;;;;5032693;28;20385;-72
2021/08/27 00:29:55;;;;;;;14.13;5.32;;;15.70;85.50;;;;;;5020018;28;20022;-80
2021/08/27 00:32:21;;;;;;;14.63;6.10;;;15.60;85.30;;;;;;5019224;28;20073;-72
2021/08/27 00:34:47;;;;;;;17.80;6.32;;;15.60;85.30;;;;;;5015831;28;20030;-72
2021/08/27 00:37:13;;;;;;;12.55;4.95;;;15.60;85.30;;;;;;5015234;28;20029;-72
2021/08/27 00:39:39;;;;;;;15.70;4.97;;;15.60;85.10;;;;;;5015799;28;20032;-73
2021/08/27 00:42:05;;;;;;;12.02;5.10;;;15.50;84.90;;;;;;5016332;28;20049;-73
2021/08/27 00:44:30;;;;;;;13.50;4.20;;;15.50;84.80;;;;;;5025954;28;20026;-72
2021/08/27 00:46:56;;;;;;;13.00;4.35;;;15.50;84.80;;;;;;5016385;28;20030;-74
2021/08/27 00:49:22;;;;;;;14.93;5.03;;;15.50;84.70;;;;;;5016792;28;20497;-73
2021/08/27 00:51:49;;;;;;;13.98;4.95;;;15.40;84.80;;;;;;5022661;28;20041;-72
2021/08/27 00:54:15;;;;;;;9.68;4.15;;;15.40;84.90;;;;;;5020485;28;20640;-72
2021/08/27 00:56:41;;;;;;;13.05;4.40;;;15.30;85.00;;;;;;5016365;28;20109;-73
2021/08/27 00:59:06;;;;;;;13.65;4.75;;;15.30;85.20;;;;;;5015109;28;20429;-73
2021/08/27 01:01:32;;;;;;;11.30;4.15;;;15.20;85.30;;;;;;5022552;28;20382;-72
2021/08/27 01:03:59;;;;;;;12.82;4.60;;;15.10;85.40;;;;;;5021571;28;20413;-72
2021/08/27 01:06:27;;;;;;;11.38;4.53;;;15.10;85.50;;;;;;5015773;28;20442;-72
2021/08/27 01:09:02;;;;;;;12.48;4.85;;;15.10;85.70;;;;;;5019644;28;20057;-72
2021/08/27 01:11:43;;;;;;;12.70;4.97;;;15.10;85.80;;;;;;5014412;28;20382;-73
2021/08/27 01:14:26;;;;;;;11.82;4.78;;;15.10;85.80;;;;;;5015303;28;20073;-73
2021/08/27 01:17:03;;;;;;;16.90;5.32;;;15.00;85.90;;;;;;5013100;28;20044;-73
2021/08/27 01:19:44;;;;;;;10.88;4.80;;;15.00;85.90;;;;;;5015176;28;20026;-72
2021/08/27 01:22:27;;;;;;;13.10;5.78;;;14.90;86.00;;;;;;5025456;28;20061;-72
2021/08/27 01:24:55;;;;;;;11.88;5.35;;;14.80;86.20;;;;;;5022151;28;20516;-72
2021/08/27 01:27:24;;;;;;;15.02;5.32;;;14.80;86.20;;;;;;5022842;28;20488;-72
2021/08/27 01:30:08;;;;;;;11.50;5.10;;;14.80;86.30;;;;;;5023191;28;20389;-73
2021/08/27 01:32:52;;;;;;;16.60;5.63;;;14.70;86.50;;;;;;5011921;28;20062;-73
2021/08/27 01:35:18;;;;;;;11.88;5.05;;;14.60;86.60;;;;;;5013320;28;20115;-73
2021/08/27 01:37:48;;;;;;;13.68;5.63;;;14.60;86.60;;;;;;5016390;28;20088;-72
2021/08/27 01:40:15;;;;;;;15.90;6.25;;;14.60;86.70;;;;;;5018476;28;20049;-72
2021/08/27 01:42:42;;;;;;;12.38;5.18;;;14.60;86.90;;;;;;5033313;28;20026;-73
2021/08/27 01:45:09;;;;;;;11.93;5.15;;;14.50;86.90;;;;;;5002273;28;20421;-74
2021/08/27 01:47:36;;;;;;;12.73;4.90;;;14.50;87.00;;;;;;5013821;28;20028;-74
2021/08/27 01:50:02;;;;;;;11.20;4.95;;;14.50;87.00;;;;;;5016949;28;20045;-73
2021/08/27 01:52:29;;;;;;;12.07;4.68;;;14.40;87.00;;;;;;5027208;28;20046;-74
2021/08/27 01:54:57;;;;;;;12.98;6.05;;;14.40;87.00;;;;;;5012068;28;20354;-73
2021/08/27 01:57:23;;;;;;;14.90;5.63;;;14.30;87.10;;;;;;4997798;28;20037;-73
2021/08/27 01:59:49;;;;;;;11.63;4.90;;;14.30;87.10;;;;;;4993982;28;20034;-75
2021/08/27 02:02:17;;;;;;;13.73;5.50;;;14.30;87.10;;;;;;5002929;28;20026;-75
2021/08/27 02:04:50;;;;;;;12.77;5.20;;;14.20;87.10;;;;;;4993050;28;20030;-73
2021/08/27 02:07:17;;;;;;;13.32;5.30;;;14.20;87.20;;;;;;4998274;28;20032;-77
2021/08/27 02:09:44;;;;;;;12.32;5.50;;;14.10;87.10;;;;;;4995383;28;20084;-78
2021/08/27 02:12:10;;;;;;;10.40;4.80;;;14.10;87.10;;;;;;5007902;28;20029;-75
2021/08/27 02:14:39;;;;;;;10.63;4.82;;;14.10;87.00;;;;;;5021902;28;20062;-73
2021/08/27 02:17:06;;;;;;;17.20;5.47;;;14.10;87.10;;;;;;5018735;28;20085;-73
2021/08/27 02:19:33;;;;;;;14.02;4.57;;;14.10;87.10;;;;;;5019591;28;20108;-76
2021/08/27 02:22:00;;;;;;;13.52;5.88;;;14.10;86.90;;;;;;5045875;28;20123;-76
2021/08/27 02:24:34;;;;;;;13.48;5.10;;;14.00;86.90;;;;;;5042576;28;20049;-78
2021/08/27 02:27:03;;;;;;;12.68;4.97;;;14.00;86.90;;;;;;5036848;28;20469;-74
2021/08/27 02:29:33;;;;;;;12.68;4.68;;;14.00;87.00;;;;;;5021006;28;20491;-73
2021/08/27 02:32:02;;;;;;;10.05;4.95;;;13.90;87.20;;;;;;5012267;28;20076;-74
2021/08/27 02:34:31;;;;;;;11.68;4.80;;;13.90;87.20;;;;;;5010298;28;20076;-76
2021/08/27 02:36:58;;;;;;;11.05;5.28;;;13.80;87.20;;;;;;5026856;28;20038;-73
2021/08/27 02:39:26;;;;;;;11.52;4.57;;;13.80;87.10;;;;;;5010996;28;20493;-73
2021/08/27 02:41:52;;;;;;;12.15;5.03;;;13.80;87.00;;;;;;5012589;28;20082;-73
2021/08/27 02:44:18;;;;;;;9.73;5.13;;;13.70;86.90;;;;;;5020591;28;20175;-73
2021/08/27 02:46:44;;;;;;;8.27;4.32;;;13.70;86.90;;;;;;5011530;28;20120;-73
2021/08/27 02:49:10;;;;;;;11.77;5.10;;;13.70;86.90;;;;;;5010769;28;20444;-77
2021/08/27 02:51:49;;;;;;;11.65;5.07;;;13.70;86.70;;;;;;5011584;28;20037;-74
2021/08/27 02:54:18;;;;;;;10.45;4.32;;;13.70;86.60;;;;;;5010079;28;20037;-74
2021/08/27 02:56:46;;;;;;;9.60;4.93;;;13.70;86.60;;;;;;5010071;28;20555;-73
2021/08/27 02:59:16;;;;;;;12.77;5.05;;;13.80;86.50;;;;;;5009155;28;20033;-73
2021/08/27 03:01:55;;;;;;;10.85;4.97;;;13.80;86.40;;;;;;5011084;28;20041;-73
2021/08/27 03:04:43;;;;;;;10.88;5.00;;;13.80;86.10;;;;;;5010277;28;20038;-73
2021/08/27 03:07:11;;;;;;;11.20;4.60;;;13.80;86.10;;;;;;5008411;28;20117;-74
2021/08/27 03:10:03;;;;;;;9.13;4.07;;;13.80;86.00;;;;;;5010752;28;20473;-73
2021/08/27 03:12:37;;;;;;;10.25;3.90;;;13.80;85.90;;;;;;5009226;28;20038;-73
2021/08/27 03:15:05;;;;;;;12.15;4.70;;;13.80;86.00;;;;;;5008903;28;20416;-75
2021/08/27 03:17:37;;;;;;;9.23;3.83;;;13.80;86.00;;;;;;5009872;28;20030;-73
2021/08/27 03:20:19;;;;;;;10.32;4.50;;;13.80;86.20;;;;;;5010274;28;20030;-73
2021/08/27 03:22:54;;;;;;;9.85;4.07;;;13.80;86.10;;;;;;5014796;28;20041;-73
2021/08/27 03:25:22;;;;;;;12.68;4.38;;;13.80;86.20;;;;;;5016291;28;20033;-73
2021/08/27 03:27:53;;;;;;;10.85;4.47;;;13.70;86.30;;;;;;5039049;28;20111;-74
2021/08/27 03:30:22;;;;;;;8.40;4.15;;;13.70;86.40;;;;;;5030327;28;20035;-75
2021/08/27 03:32:53;;;;;;;11.20;4.57;;;13.70;86.30;;;;;;5030464;28;20033;-72
2021/08/27 03:35:21;;;;;;;10.73;4.13;;;13.70;86.30;;;;;;5033401;28;20033;-74
2021/08/27 03:37:48;;;;;;;10.35;4.13;;;13.70;86.30;;;;;;5037086;28;20029;-73
2021/08/27 03:40:15;;;;;;;10.65;4.13;;;13.80;86.20;;;;;;5018459;28;20370;-73
2021/08/27 03:42:42;;;;;;;9.07;3.97;;;13.70;86.10;;;;;;5042602;28;20040;-73
2021/08/27 03:45:10;;;;;;;11.43;4.10;;;13.70;86.20;;;;;;5042990;28;20034;-73
2021/08/27 03:47:39;;;;;;;11.55;5.07;;;13.70;86.30;;;;;;5030077;28;20108;-73
2021/08/27 03:50:06;;;;;;;10.25;4.30;;;13.80;86.30;;;;;;5036170;28;20033;-77
2021/08/27 03:52:32;;;;;;;9.90;4.03;;;13.70;86.50;;;;;;5037846;28;20033;-75
2021/08/27 03:55:00;;;;;;;9.15;3.97;;;13.70;86.70;;;;;;5014090;28;20124;-74
2021/08/27 03:57:27;;;;;;;9.20;4.13;;;13.60;86.90;;;;;;5009821;28;20393;-74
2021/08/27 03:59:53;;;;;;;9.50;4.10;;;13.60;87.00;;;;;;5010527;28;20030;-77
2021/08/27 04:02:19;;;;;;;9.88;3.88;;;13.60;87.10;;;;;;5007228;28;20034;-76
2021/08/27 04:04:45;;;;;;;10.90;4.53;;;13.60;87.20;;;;;;5010390;28;20022;-73
2021/08/27 04:07:10;;;;;;;9.80;4.35;;;13.60;87.20;;;;;;5009767;28;20168;-74
2021/08/27 04:09:36;;;;;;;9.50;3.97;;;13.50;87.30;;;;;;5019126;28;20394;-73
2021/08/27 04:12:05;;;;;;;11.15;3.90;;;13.40;87.30;;;;;;5012519;28;20081;-73
2021/08/27 04:14:31;;;;;;;9.55;4.15;;;13.40;87.40;;;;;;5008573;28;20022;-73
2021/08/27 04:16:58;;;;;;;9.00;4.00;;;13.40;87.40;;;;;;5011060;28;20389;-73
2021/08/27 04:19:25;;;;;;;11.00;4.35;;;13.30;87.40;;;;;;5009610;28;20030;-73
2021/08/27 04:21:51;;;;;;;10.75;4.45;;;13.30;87.50;;;;;;5012643;28;20037;-73
2021/08/27 04:24:16;;;;;;;9.00;3.90;;;13.30;87.40;;;;;;5010084;28;20089;-79
2021/08/27 04:26:42;;;;;;;9.32;3.65;;;13.30;87.30;;;;;;5010288;28;20175;-74
2021/08/27 04:29:11;;;;;;;8.23;3.70;;;13.30;87.10;;;;;;5008063;28;20029;-73
2021/08/27 04:31:38;;;;;;;8.82;4.05;;;13.30;87.00;;;;;;5009258;28;20121;-73
2021/08/27 04:34:03;;;;;;;8.30;4.20;;;13.20;86.90;;;;;;5008970;28;20036;-73
2021/08/27 04:36:29;;;;;;;9.20;4.50;;;13.20;87.00;;;;;;5022803;28;20029;-73
2021/08/27 04:38:55;;;;;;;9.82;4.10;;;13.10;87.20;;;;;;5049847;28;20049;-73
2021/08/27 04:41:20;;;;;;;10.00;4.60;;;13.10;87.30;;;;;;5033048;28;20145;-73
2021/08/27 04:43:50;;;;;;;9.65;3.90;;;13.10;87.30;;;;;;5029928;28;20037;-75
2021/08/27 04:46:16;;;;;;;9.20;4.35;;;13.10;87.50;;;;;;5036305;28;20029;-72
2021/08/27 04:48:41;;;;;;;8.80;4.28;;;13.10;87.50;;;;;;5053231;28;20036;-75
2021/08/27 04:51:07;;;;;;;8.80;4.35;;;13.10;87.50;;;;;;5049717;28;20038;-76
2021/08/27 04:53:33;;;;;;;9.55;4.43;;;13.20;87.50;;;;;;5030173;28;20053;-72
2021/08/27 04:55:58;;;;;;;11.23;5.00;;;13.20;87.40;;;;;;5010968;28;20026;-75
2021/08/27 04:58:25;;;;;;;11.85;4.65;;;13.30;87.30;;;;;;5012907;28;20038;-72
2021/08/27 05:00:52;;;;;;;11.55;4.57;;;13.30;87.20;;;;;;5012994;28;20042;-73
2021/08/27 05:03:19;;;;;;;10.02;4.97;;;13.40;87.20;;;;;;5012674;28;20038;-73
2021/08/27 05:05:45;;;;;;;10.50;4.70;;;13.40;87.10;;;;;;5012976;28;20030;-73
2021/08/27 05:08:11;;;;;;;12.23;5.43;;;13.40;87.10;;;;;;5011740;28;20465;-73
2021/08/27 05:10:36;;;;;;;9.30;4.65;;;13.50;87.10;;;;;;5016264;28;20080;-78
2021/08/27 05:13:02;;;;;;;10.05;4.72;;;13.60;87.10;;;;;;5032552;28;20037;-74
2021/08/27 05:15:28;;;;;;;8.25;4.68;;;13.60;87.10;;;;;;5026909;28;20026;-73
2021/08/27 05:17:53;;;;;;;8.68;4.47;;;13.60;87.00;;;;;;5004700;28;20034;-73
2021/08/27 05:20:19;;;;;;;8.32;4.97;;;13.60;87.00;;;;;;5015859;28;20532;-74
2021/08/27 05:22:45;;;;;;;9.07;4.50;;;13.70;86.90;;;;;;5020230;28;20057;-77
2021/08/27 05:25:11;;;;;;;9.90;4.75;;;13.70;86.70;;;;;;5010751;28;20125;-73
2021/08/27 05:27:38;;;;;;;9.18;4.90;;;13.70;86.40;;;;;;5011546;28;20034;-73
2021/08/27 05:30:06;;;;;;;15.35;4.93;;;13.70;86.40;;;;;;5008204;28;20038;-74
2021/08/27 05:32:32;;;;;;;10.63;5.55;;;13.80;86.30;;;;;;5012839;28;20481;-73
2021/08/27 05:34:58;;;;;;;9.45;4.85;;;13.80;86.30;;;;;;5011242;28;20037;-73
2021/08/27 05:37:23;;;;;;;10.23;4.90;;;13.80;86.20;;;;;;5020636;28;20025;-74
2021/08/27 05:39:50;;;;;;;10.20;5.30;;;13.80;86.10;;;;;;5027704;28;20026;-71
2021/08/27 05:42:16;;;;;;;10.88;5.18;;;13.90;86.00;;;;;;5021478;28;20381;-72
2021/08/27 05:44:41;;;;;;;8.45;4.72;;;13.90;86.00;;;;;;5012090;28;20037;-72
2021/08/27 05:47:07;;;;;;;12.32;4.68;;;14.00;85.90;;;;;;5010564;28;20038;-73
2021/08/27 05:49:34;;;;;;;9.80;4.65;;;14.00;86.00;;;;;;5014402;28;20573;-70
2021/08/27 05:52:00;;;;;;;10.02;4.57;;;14.10;85.90;;;;;;5021522;28;20041;-71
2021/08/27 05:54:25;;;;;;;8.90;4.65;;;14.10;85.80;;;;;;5011757;28;20430;-72
2021/08/27 05:56:51;;;;;;;10.07;4.85;;;14.20;85.70;;;;;;5010783;28;20042;-72
2021/08/27 05:59:17;;;;;;;11.95;5.18;;;14.30;85.50;;;;;;5010963;28;20030;-71
2021/08/27 06:01:42;;;;;;;10.27;5.32;;;14.30;85.40;;;;;;5015276;28;20045;-70
2021/08/27 06:04:08;;;;;;;10.75;5.07;;;14.40;85.50;;;;;;5011753;28;20371;-70
2021/08/27 06:06:35;;;;;;;10.93;4.60;;;14.50;85.40;;;;;;5010222;28;20156;-70
2021/08/27 06:09:02;;;;;;;13.77;4.55;;;14.60;85.40;;;;;;5010413;28;20417;-70
2021/08/27 06:11:27;;;;;;;11.63;4.25;;;14.60;85.30;;;;;;5011204;28;20038;-70
2021/08/27 06:13:53;;;;;;;9.27;4.45;;;14.60;85.10;;;;;;5009592;28;20042;-71
2021/08/27 06:16:19;;;;;;;11.93;4.88;;;14.70;84.90;;;;;;5030115;28;20033;-70
2021/08/27 06:18:44;;;;;;;11.15;4.65;;;14.80;85.00;;;;;;5036159;28;20133;-71
2021/08/27 06:21:10;;;;;;;14.77;4.95;;;14.80;84.90;;;;;;5037126;28;20046;-70
2021/08/27 06:23:36;;;;;;;9.27;4.40;;;14.90;84.80;;;;;;5035731;28;20099;-70
2021/08/27 06:26:01;;;;;;;12.15;4.88;;;15.00;84.90;;;;;;5013217;28;20034;-71
2021/08/27 06:28:27;;;;;;;11.68;4.70;;;15.10;84.80;;;;;;5011261;28;20026;-74
2021/08/27 06:30:53;;;;;;;12.18;4.35;;;15.10;84.70;;;;;;5011551;28;20050;-70
2021/08/27 06:33:18;;;;;;;15.95;5.03;;;15.20;84.50;;;;;;5011237;28;20034;-70
2021/08/27 06:35:44;;;;;;;12.02;3.85;;;15.30;84.40;;;;;;5009348;28;20034;-71
2021/08/27 06:38:25;;;;;;;13.38;3.90;;;15.50;84.30;;;;;;5010854;28;20068;-71
2021/08/27 06:41:03;;;;;;;7.32;3.92;;;15.60;84.10;;;;;;5011585;28;20038;-71
2021/08/27 06:43:32;;;;;;;11.77;4.05;;;15.80;83.90;;;;;;5016623;28;20419;-71
2021/08/27 06:46:01;;;;;;;11.15;4.43;;;15.90;83.60;;;;;;5008742;28;20394;-70
2021/08/27 06:48:28;;;;;;;12.27;3.97;;;16.00;83.20;;;;;;5018121;28;20469;-70
2021/08/27 06:50:54;;;;;;;15.95;4.32;;;16.00;83.20;;;;;;5030228;28;20135;-71
2021/08/27 06:53:20;;;;;;;16.13;4.65;;;16.10;83.10;;;;;;5032737;28;20132;-71
2021/08/27 06:55:46;;;;;;;15.00;5.05;;;16.00;83.10;;;;;;5026069;28;20385;-70
2021/08/27 06:58:12;;;;;;;16.17;4.07;;;16.00;83.20;;;;;;5045443;28;20090;-70
2021/08/27 07:00:38;;;;;;;12.05;4.30;;;16.10;83.30;;;;;;5032999;28;20064;-70
2021/08/27 07:03:04;;;;;;;11.63;4.32;;;16.20;83.40;;;;;;5035686;28;20205;-70
2021/08/27 07:05:30;;;;;;;15.43;5.22;;;16.40;83.30;;;;;;5032880;28;20533;-73
2021/08/27 07:07:57;;;;;;;11.82;5.43;;;16.60;82.80;;;;;;5041316;28;20112;-71
2021/08/27 07:10:23;;;;;;;13.13;5.28;;;16.90;81.90;;;;;;5029976;28;20083;-70
2021/08/27 07:12:49;;;;;;;18.40;5.43;;;17.10;81.00;;;;;;5033551;28;20033;-71
2021/08/27 07:15:16;;;;;;;14.35;4.80;;;17.30;79.70;;;;;;5028403;28;20540;-70
2021/08/27 07:17:42;;;;;;;16.75;5.13;;;17.60;79.70;;;;;;5041027;28;20048;-70
2021/08/27 07:20:09;;;;;;;13.48;5.22;;;17.90;77.70;;;;;;5048378;28;20427;-70
2021/08/27 07:22:36;;;;;;;16.88;6.25;;;18.10;77.70;;;;;;5043051;28;20032;-71
2021/08/27 07:25:02;;;;;;;14.65;6.28;;;18.40;76.10;;;;;;5013010;28;20038;-70
2021/08/27 07:27:28;;;;;;;13.88;6.22;;;18.40;74.10;;;;;;5010873;28;20034;-70
2021/08/27 07:29:53;;;;;;;17.83;6.72;;;18.30;74.90;;;;;;5010470;28;20037;-69
2021/08/27 07:32:19;;;;;;;21.38;7.88;;;18.40;74.90;;;;;;5014950;28;20401;-69
2021/08/27 07:34:45;;;;;;;15.18;7.15;;;18.30;75.10;;;;;;5024061;28;20034;-70
2021/08/27 07:37:11;;;;;;;13.57;6.57;;;18.30;75.00;;;;;;5011329;28;20093;-69
2021/08/27 07:39:38;;;;;;;17.27;6.93;;;18.20;75.70;;;;;;5043905;28;20029;-69
2021/08/27 07:42:05;;;;;;;18.92;7.32;;;18.10;75.40;;;;;;5050157;28;20107;-70
2021/08/27 07:44:30;;;;;;;17.13;6.82;;;18.10;76.10;;;;;;5048728;28;20025;-75
2021/08/27 07:46:56;;;;;;;15.85;6.22;;;18.10;76.10;;;;;;5030217;28;20029;-72
2021/08/27 07:49:22;;;;;;;18.08;6.65;;;18.20;75.90;;;;;;5049289;28;20534;-70
2021/08/27 07:51:49;;;;;;;21.00;7.13;;;18.10;75.30;;;;;;5045638;28;20457;-71
2021/08/27 07:54:15;;;;;;;17.45;7.20;;;18.20;75.80;;;;;;5020308;28;20057;-70
2021/08/27 07:56:41;;;;;;;16.42;7.43;;;18.20;75.90;;;;;;5009263;28;20034;-70
2021/08/27 07:59:07;;;;;;;17.15;6.90;;;18.40;75.80;;;;;;5012323;28;20491;-72
2021/08/27 08:01:33;;;;;;;19.98;8.20;;;18.50;75.60;;;;;;5025432;28;20109;-71
2021/08/27 08:04:01;;;;;;;21.08;8.00;;;18.40;75.10;;;;;;5010140;28;20050;-72
2021/08/27 08:06:27;;;;;;;19.52;7.43;;;18.50;75.20;;;;;;5010072;28;20034;-71
2021/08/27 08:08:53;;;;;;;15.18;7.22;;;18.50;74.60;;;;;;5015710;28;20029;-73
2021/08/27 08:11:19;;;;;;;15.73;6.38;;;18.60;74.50;;;;;;5027841;28;20056;-71
2021/08/27 08:13:44;;;;;;;16.48;6.70;;;18.60;73.20;;;;;;5045680;28;20079;-71
2021/08/27 08:16:11;;;;;;;18.30;6.57;;;18.60;74.00;;;;;;5038016;28;20116;-73
2021/08/27 08:18:37;;;;;;;15.43;6.68;;;18.60;74.50;;;;;;5033044;28;20029;-71
2021/08/27 08:21:04;;;;;;;19.25;6.97;;;18.50;74.30;;;;;;5037162;28;20033;-70
2021/08/27 08:23:29;;;;;;;20.48;8.23;;;18.60;73.30;;;;;;5039057;28;20378;-71
2021/08/27 08:25:55;;;;;;;18.92;6.93;;;18.40;74.30;;;;;;5032332;28;20491;-70
2021/08/27 08:28:21;;;;;;;21.48;7.25;;;18.30;74.30;;;;;;5031363;28;20487;-70
2021/08/27 08:30:49;;;;;;;15.50;6.75;;;18.30;74.90;;;;;;5027043;28;20120;-70
2021/08/27 08:33:15;;;;;;;24.60;7.78;;;18.30;74.70;;;;;;5033116;28;20048;-70
2021/08/27 08:35:40;;;;;;;17.55;6.40;;;18.30;74.90;;;;;;5041090;28;20383;-70
2021/08/27 08:38:06;;;;;;;18.58;6.35;;;18.20;75.20;;;;;;5049991;28;20025;-71
2021/08/27 08:40:37;;;;;;;16.10;6.13;;;18.20;75.30;;;;;;5034275;28;20037;-70
2021/08/27 08:43:02;;;;;;;17.10;6.05;;;18.20;74.90;;;;;;5038026;28;20052;-71
2021/08/27 08:45:28;;;;;;;14.50;5.85;;;18.10;74.70;;;;;;5048245;28;20372;-70
2021/08/27 08:47:56;;;;;;;14.32;5.18;;;18.20;74.70;;;;;;5046102;28;20045;-70
2021/08/27 08:50:22;;;;;;;11.50;3.55;;;18.30;72.60;;;;;;5032801;28;20038;-70
2021/08/27 08:52:48;;;;;;;10.98;3.92;;;18.40;69.60;;;;;;5034662;28;20172;-70
2021/08/27 08:55:15;;;;;;;9.85;3.75;;;18.70;67.90;;;;;;5017032;28;20072;-70
2021/08/27 08:57:40;;;;;;;9.00;3.63;;;19.10;65.90;;;;;;5020119;28;20037;-70
2021/08/27 09:00:07;;;;;;;9.38;3.30;;;19.50;64.60;;;;;;5023555;28;20041;-71
2021/08/27 09:02:32;;;;;;;10.65;4.15;;;19.80;64.10;;;;;;5012353;28;20378;-71
2021/08/27 09:04:58;;;;;;;8.95;3.95;;;20.10;61.60;;;;;;5011921;28;20097;-70
2021/08/27 09:07:24;;;;;;;12.05;4.18;;;20.10;61.40;;;;;;5012590;28;20121;-71
2021/08/27 09:09:50;;;;;;;11.45;4.47;;;20.30;63.20;;;;;;5011902;28;20038;-72
2021/08/27 09:12:25;;;;;;;12.57;4.78;;;20.50;63.10;;;;;;5012722;28;20034;-72
2021/08/27 09:15:09;;;;;;;12.30;5.15;;;20.60;63.90;;;;;;5011919;28;20041;-71
2021/08/27 09:17:46;;;;;;;12.18;4.72;;;20.60;64.80;;;;;;5003031;28;20057;-71
2021/08/27 09:20:20;;;;;;;17.35;5.53;;;20.30;63.60;;;;;;5034979;28;20041;-71
2021/08/27 09:23:04;;;;;;;14.25;4.82;;;20.50;64.00;;;;;;5045525;28;20400;-71
2021/08/27 09:25:36;;;;;;;14.32;4.85;;;20.50;64.60;;;;;;5010290;28;20029;-71
2021/08/27 09:28:15;;;;;;;12.27;4.10;;;20.60;65.60;;;;;;5031678;28;20091;-71
2021/08/27 09:30:47;;;;;;;12.90;5.20;;;21.00;64.20;;;;;;5012687;28;20382;-71
2021/08/27 09:33:17;;;;;;;12.13;4.38;;;20.80;63.80;;;;;;5011380;28;20034;-71
2021/08/27 09:35:54;;;;;;;14.63;4.57;;;21.00;63.70;;;;;;5026306;28;20481;-72
2021/08/27 09:38:27;;;;;;;11.57;4.50;;;21.10;63.40;;;;;;5013632;28;20037;-72
2021/08/27 09:41:19;;;;;;;13.57;4.50;;;21.60;62.20;;;;;;5032368;28;20366;-71
2021/08/27 09:43:54;;;;;;;12.05;4.20;;;21.20;61.90;;;;;;5042120;28;20045;-71
2021/08/27 09:46:33;;;;;;;9.85;3.80;;;20.50;62.20;;;;;;5035012;28;20034;-71
2021/08/27 09:49:01;;;;;;;11.20;3.92;;;20.00;64.80;;;;;;5035660;28;20033;-71
2021/08/27 09:51:43;;;;;;;13.45;4.70;;;19.40;69.00;;;;;;5036464;28;20037;-74
2021/08/27 09:54:09;;;;;;;15.55;5.43;;;18.80;72.80;;;;;;5044030;28;20033;-71
2021/08/27 09:56:49;;;;;;;10.60;4.15;;;18.30;75.30;;;;;;5040378;28;20499;-71
2021/08/27 09:59:15;;;;;;;12.65;4.45;;;18.30;75.80;;;;;;5049706;28;20037;-71
2021/08/27 10:01:48;;;;;;;10.10;4.32;;;18.20;76.80;;;;;;5047337;28;20088;-70
2021/08/27 10:04:15;;;;;;;8.85;3.90;;;18.20;76.50;;;;;;5029801;28;20072;-70
2021/08/27 10:06:41;;;;;;;11.00;4.20;;;18.10;76.90;;;;;;5031540;28;20029;-69
2021/08/27 10:09:07;;;;;;;12.27;4.43;;;18.00;77.50;;;;;;5029941;28;20401;-70
2021/08/27 10:11:33;;;;;;;12.00;4.82;;;18.00;77.30;;;;;;5031658;28;20040;-70
2021/08/27 10:13:59;;;;;;;14.57;4.78;;;18.00;77.50;;;;;;5049544;28;20395;-71
2021/08/27 10:16:27;;;;;;;11.88;4.68;;;18.10;77.50;;;;;;5039815;28;20992;-74
2021/08/27 10:18:53;;;;;;;12.88;6.30;;;18.30;77.80;;;;;;5051565;28;20073;-69
2021/08/27 10:21:19;;;;;;;13.63;5.53;;;18.50;76.80;;;;;;5025936;28;20045;-70
2021/08/27 10:23:44;;;;;;;16.02;5.40;;;18.60;75.40;;;;;;5041590;28;20041;-70
2021/08/27 10:26:18;;;;;;;11.45;5.07;;;18.70;77.10;;;;;;5020923;28;20377;-71
2021/08/27 10:28:44;;;;;;;12.25;4.75;;;19.00;76.70;;;;;;5020847;28;20358;-70
2021/08/27 10:31:10;;;;;;;11.68;5.07;;;19.20;76.30;;;;;;5003261;28;20399;-70
2021/08/27 10:33:39;;;;;;;12.77;5.38;;;19.40;76.00;;;;;;5025374;28;20519;-70
2021/08/27 10:36:21;;;;;;;13.77;5.68;;;19.40;75.30;;;;;;5018566;28;20046;-70
2021/08/27 10:38:51;;;;;;;17.15;5.40;;;19.50;74.20;;;;;;5005162;28;20033;-69
2021/08/27 10:41:18;;;;;;;11.82;4.97;;;19.70;73.60;;;;;;5014188;28;20045;-70
2021/08/27 10:44:10;;;;;;;16.05;5.05;;;20.00;74.40;;;;;;5010864;28;20044;-70
2021/08/27 10:46:49;;;;;;;9.55;3.70;;;20.30;73.80;;;;;;5024589;28;20511;-71
2021/08/27 10:49:23;;;;;;;7.63;2.22;;;19.90;71.20;;;;;;5030331;28;20041;-74
2021/08/27 10:51:51;;;;;;;6.57;2.28;;;19.60;67.90;;;;;;5034427;28;20032;-72
2021/08/27 10:54:18;;;;;;;7.70;1.83;;;19.60;68.60;;;;;;5030900;28;20035;-72
2021/08/27 10:56:45;;;;;;;7.82;1.73;;;19.60;68.60;;;;;;5030646;28;20030;-71
2021/08/27 10:59:13;;;;;;;7.88;1.92;;;19.50;67.80;;;;;;5028833;28;20544;-71
2021/08/27 11:01:40;;;;;;;8.45;2.05;;;19.80;67.20;;;;;;5030623;28;20045;-71
2021/08/27 11:04:16;;;;;;;11.45;2.00;;;20.00;66.40;;;;;;5029139;28;20112;-70
2021/08/27 11:06:50;;;;;;;7.03;2.15;;;20.30;66.40;;;;;;5030565;28;20040;-71
2021/08/27 11:09:27;;;;;;;6.32;1.92;;;20.50;66.70;;;;;;5017946;28;20038;-72
2021/08/27 11:12:09;;;;;;;5.30;1.80;;;20.80;63.70;;;;;;5030280;28;20069;-71
2021/08/27 11:14:37;;;;;;;10.25;2.63;;;21.00;61.20;;;;;;5009636;28;20089;-71
2021/08/27 11:17:06;;;;;;;9.68;1.98;;;21.10;61.90;;;;;;5009817;28;20034;-70
2021/08/27 11:19:35;;;;;;;10.70;3.10;;;20.90;61.70;;;;;;5021839;28;20488;-71
2021/08/27 11:22:10;;;;;;;6.88;1.80;;;20.70;62.30;;;;;;5027492;28;20033;-70
2021/08/27 11:24:41;;;;;;;7.82;1.70;;;20.70;62.20;;;;;;5018626;28;20096;-72
2021/08/27 11:27:09;;;;;;;9.60;2.05;;;21.00;62.10;;;;;;5030311;28;20362;-70
2021/08/27 11:29:42;;;;;;;5.45;1.90;;;21.20;61.90;;;;;;5030422;28;20029;-71
2021/08/27 11:32:34;;;;;;;10.37;2.07;;;21.10;62.30;;;;;;5029805;28;20056;-70
2021/08/27 11:35:07;;;;;;;7.30;1.70;;;21.00;61.30;;;;;;5046845;28;20025;-70
2021/08/27 11:37:36;;;;;;;6.82;1.80;;;20.70;59.90;;;;;;5030885;28;20083;-74
2021/08/27 11:40:04;;;;;;;7.95;2.05;;;20.60;60.20;;;;;;5014992;28;20025;-71
2021/08/27 11:42:30;;;;;;;6.70;1.70;;;20.50;59.20;;;;;;5019260;28;20477;-70
2021/08/27 11:45:07;;;;;;;7.03;1.90;;;20.40;59.60;;;;;;5014795;28;20053;-70
2021/08/27 11:47:39;;;;;;;5.40;1.65;;;20.50;60.60;;;;;;4999424;28;20035;-70
2021/08/27 11:50:08;;;;;;;9.13;2.38;;;20.30;60.00;;;;;;5006115;28;20045;-71
2021/08/27 11:52:35;;;;;;;5.97;1.73;;;20.10;60.20;;;;;;5040421;28;20041;-70
2021/08/27 11:55:07;;;;;;;7.13;1.90;;;20.10;60.20;;;;;;5032330;28;20026;-70
2021/08/27 11:57:34;;;;;;;6.75;1.95;;;20.30;60.40;;;;;;5022613;28;20079;-70
2021/08/27 12:00:11;;;;;;;6.43;2.03;;;20.30;59.40;;;;;;5014273;28;20532;-69
2021/08/27 12:02:37;;;;;;;7.85;2.72;;;20.30;59.50;;;;;;5030880;28;20121;-69
2021/08/27 12:05:06;;;;;;;9.27;2.40;;;20.30;59.00;;;;;;5030141;28;20038;-70
2021/08/27 12:07:34;;;;;;;7.38;2.53;;;20.30;59.30;;;;;;5029504;28;20041;-69
2021/08/27 12:10:11;;;;;;;5.07;2.22;;;20.50;59.00;;;;;;5028734;28;20026;-72
2021/08/27 12:12:39;;;;;;;7.47;2.42;;;20.50;57.90;;;;;;5028477;28;20439;-70
2021/08/27 12:15:06;;;;;;;8.95;2.53;;;20.50;56.60;;;;;;5028842;28;20363;-70
2021/08/27 12:17:32;;;;;;;6.85;2.30;;;20.60;58.70;;;;;;5028331;28;20048;-69
2021/08/27 12:20:00;;;;;;;9.55;2.85;;;21.10;57.70;;;;;;5028159;28;20053;-69
2021/08/27 12:22:37;;;;;;;7.97;3.08;;;21.30;55.60;;;;;;5024968;28;20037;-69
2021/08/27 12:25:03;;;;;;;7.32;2.97;;;21.30;56.80;;;;;;5027637;28;20046;-70
2021/08/27 12:27:29;;;;;;;11.23;3.28;;;21.10;58.00;;;;;;5028509;28;20033;-69
2021/08/27 12:30:25;;;;;;;10.75;2.97;;;21.10;58.90;;;;;;5028086;28;20361;-70
2021/08/27 12:32:52;;;;;;;9.75;3.30;;;21.10;59.90;;;;;;5010353;28;20115;-70
2021/08/27 12:35:28;;;;;;;11.20;3.17;;;21.20;60.40;;;;;;5028945;28;20030;-71
2021/08/27 12:37:54;;;;;;;12.38;3.25;;;21.50;59.50;;;;;;5029481;28;20030;-71
2021/08/27 12:40:23;;;;;;;7.07;2.55;;;21.60;58.80;;;;;;5027799;28;20037;-70
2021/08/27 12:42:59;;;;;;;7.22;2.65;;;21.60;57.30;;;;;;5028161;28;20038;-71
2021/08/27 12:45:25;;;;;;;9.57;3.13;;;21.50;56.20;;;;;;5029273;28;20079;-69
2021/08/27 12:48:01;;;;;;;10.15;3.13;;;21.60;57.50;;;;;;5027732;28;20041;-70